createdAt,value
2022-12-05T00:02:01.042Z,18448.34
2022-12-05T00:04:29.414Z,18440.22
2022-12-05T00:06:57.586Z,18428.03
2022-12-05T00:09:25.754Z,18440.22
2022-12-05T00:11:54.083Z,18436.16
2022-12-05T00:14:22.228Z,18468.66
2022-12-05T00:16:51.827Z,18436.16
2022-12-05T00:19:20.049Z,18425.97
2022-12-05T00:21:48.168Z,18464.59
2022-12-05T00:24:17.589Z,18452.41
2022-12-05T00:26:45.944Z,18452.41
2022-12-05T00:29:14.444Z,18454.44
2022-12-05T00:31:42.978Z,18417.84
2022-12-05T00:34:12.518Z,18454.44
2022-12-05T00:36:41.519Z,18480.84
2022-12-05T00:39:14.235Z,18436.16
2022-12-05T00:41:44.101Z,18448.34
2022-12-05T00:44:13.990Z,18409.72
2022-12-05T00:46:42.420Z,18436.16
2022-12-05T00:49:13.026Z,18438.19
2022-12-05T00:51:43.490Z,18450.38
2022-12-05T00:54:16.414Z,18428.03
2022-12-05T00:56:45.753Z,18434.13
2022-12-05T00:59:17.977Z,18421.91
2022-12-05T01:01:48.744Z,18448.34
2022-12-05T01:04:21.498Z,18395.50
2022-12-05T01:06:51.318Z,18440.22
2022-12-05T01:09:21.726Z,18377.22
2022-12-05T01:11:52.454Z,18403.63
2022-12-05T01:14:24.237Z,18415.81
2022-12-05T01:16:55.482Z,18415.81
2022-12-05T01:19:28.861Z,18407.69
2022-12-05T01:21:57.775Z,18432.09
2022-12-05T01:24:28.465Z,18405.66
2022-12-05T01:26:56.986Z,18417.84
2022-12-05T01:29:26.747Z,18425.97
2022-12-05T01:31:55.726Z,18405.66
2022-12-05T01:34:25.284Z,18440.22
2022-12-05T01:36:53.545Z,18430.06
2022-12-05T01:39:21.695Z,18440.22
2022-12-05T01:41:51.251Z,18407.69
2022-12-05T01:45:01.489Z,18399.56
2022-12-05T01:47:33.682Z,18440.22
2022-12-05T01:50:04.422Z,18430.06
2022-12-05T01:52:35.242Z,18436.16
2022-12-05T01:55:13.179Z,18432.09
2022-12-05T01:57:42.631Z,18405.66
2022-12-05T02:00:15.833Z,18395.50
2022-12-05T02:02:52.726Z,18401.59
2022-12-05T02:05:28.537Z,18415.81
2022-12-05T02:07:58.344Z,18425.97
2022-12-05T02:10:29.285Z,18399.56
2022-12-05T02:13:14.898Z,18415.81
2022-12-05T02:15:56.827Z,18415.81
2022-12-05T02:18:42.525Z,18365.03
2022-12-05T02:21:55.617Z,18401.59
2022-12-05T02:24:56.729Z,18399.56
2022-12-05T02:27:52.144Z,18409.72
2022-12-05T02:30:23.854Z,18409.72
2022-12-05T02:33:16.253Z,18371.13
2022-12-05T02:35:58.699Z,18375.19
2022-12-05T02:38:35.027Z,18391.44
2022-12-05T02:41:16.066Z,18397.53
2022-12-05T02:43:53.328Z,18379.25
2022-12-05T02:46:27.190Z,18367.06
2022-12-05T02:49:01.294Z,18405.66
2022-12-05T02:51:36.366Z,18389.41
2022-12-05T02:54:11.516Z,18379.25
2022-12-05T02:56:43.578Z,18401.59
2022-12-05T02:59:11.993Z,18407.69
2022-12-05T03:01:41.835Z,18401.59
2022-12-05T03:04:15.022Z,18407.69
2022-12-05T03:06:47.952Z,18379.25
2022-12-05T03:09:23.141Z,18367.06
2022-12-05T03:11:57.874Z,18377.22
2022-12-05T03:14:34.387Z,18375.19
2022-12-05T03:17:11.623Z,18371.13
2022-12-05T03:19:50.980Z,18371.13
2022-12-05T03:22:30.917Z,18379.25
2022-12-05T03:24:59.798Z,18371.13
2022-12-05T03:27:38.300Z,18407.69
2022-12-05T03:30:11.764Z,18363.00
2022-12-05T03:32:49.325Z,18358.94
2022-12-05T03:35:26.734Z,18365.03
2022-12-05T03:38:02.299Z,18387.38
2022-12-05T03:40:42.275Z,18377.22
2022-12-05T03:43:15.135Z,18350.81
2022-12-05T03:45:50.066Z,18379.25
2022-12-05T03:48:31.385Z,18367.06
2022-12-05T03:51:02.860Z,18346.75
2022-12-05T03:53:38.219Z,18367.06
2022-12-05T03:56:11.550Z,18371.13
2022-12-05T03:58:46.198Z,18377.22
2022-12-05T04:01:19.048Z,18393.47
2022-12-05T04:03:54.191Z,18352.84
2022-12-05T04:06:30.090Z,18358.94
2022-12-05T04:09:02.980Z,18352.84
2022-12-05T04:11:35.702Z,18381.28
2022-12-05T04:14:12.586Z,18360.97
2022-12-05T04:17:05.431Z,18352.84
2022-12-05T04:20:00.333Z,18371.13
2022-12-05T04:22:29.488Z,18358.94
2022-12-05T04:25:18.062Z,18389.41
2022-12-05T04:27:59.414Z,18360.97
2022-12-05T04:30:36.839Z,18356.91
2022-12-05T04:33:13.352Z,18373.16
2022-12-05T04:35:51.801Z,18356.91
2022-12-05T04:38:26.390Z,18352.84
2022-12-05T04:41:01.657Z,18350.81
2022-12-05T04:43:35.940Z,18342.69
2022-12-05T04:46:08.294Z,18358.94
2022-12-05T04:48:42.230Z,18338.63
2022-12-05T04:51:18.612Z,18391.44
2022-12-05T04:53:51.256Z,18356.91
2022-12-05T04:56:23.491Z,18326.44
2022-12-05T04:58:51.742Z,18324.41
2022-12-05T05:01:26.611Z,18395.50
2022-12-05T05:04:03.001Z,18350.81
2022-12-05T05:06:32.701Z,18318.31
2022-12-05T05:09:00.806Z,18328.47
2022-12-05T05:11:31.530Z,18344.72
2022-12-05T05:14:00.181Z,18334.56
2022-12-05T05:16:36.920Z,18342.69
2022-12-05T05:19:06.383Z,18377.22
2022-12-05T05:21:39.085Z,18379.25
2022-12-05T05:24:09.710Z,18354.88
2022-12-05T05:26:40.581Z,18342.69
2022-12-05T05:29:10.148Z,18342.69
2022-12-05T05:31:40.546Z,18330.50
2022-12-05T05:34:10.239Z,18338.63
2022-12-05T05:36:40.479Z,18314.25
2022-12-05T05:39:14.971Z,18342.69
2022-12-05T05:41:44.048Z,18342.69
2022-12-05T05:44:12.152Z,18354.88
2022-12-05T05:46:40.392Z,18334.56
2022-12-05T05:49:08.578Z,18322.38
2022-12-05T05:51:36.706Z,18336.59
2022-12-05T05:54:06.326Z,18342.69
2022-12-05T05:56:34.500Z,18344.72
2022-12-05T05:59:04.838Z,18338.63
2022-12-05T06:01:33.308Z,18352.84
2022-12-05T06:04:01.516Z,18340.66
2022-12-05T06:06:29.909Z,18322.38
2022-12-05T06:08:58.203Z,18354.88
2022-12-05T06:11:29.444Z,18340.66
2022-12-05T06:14:00.963Z,18326.44
2022-12-05T06:16:30.182Z,18322.38
2022-12-05T06:18:58.941Z,18328.47
2022-12-05T06:21:27.838Z,18318.31
2022-12-05T06:23:56.206Z,18346.75
2022-12-05T06:26:24.984Z,18324.41
2022-12-05T06:28:55.399Z,18312.22
2022-12-05T06:31:27.132Z,18314.25
2022-12-05T06:33:55.400Z,18310.19
2022-12-05T06:36:24.083Z,18320.34
2022-12-05T06:38:52.152Z,18271.59
2022-12-05T06:41:22.036Z,18275.66
2022-12-05T06:43:50.185Z,18285.81
2022-12-05T06:46:19.750Z,18285.81
2022-12-05T06:48:47.982Z,18304.09
2022-12-05T06:51:17.935Z,18249.25
2022-12-05T06:53:46.465Z,18277.69
2022-12-05T06:56:20.593Z,18310.19
2022-12-05T06:58:52.410Z,18285.81
2022-12-05T07:01:40.985Z,18283.78
2022-12-05T07:04:15.454Z,18230.94
2022-12-05T07:06:50.288Z,18249.25
2022-12-05T07:09:21.482Z,18237.06
2022-12-05T07:11:50.216Z,18237.06
2022-12-05T07:14:45.906Z,18232.97
2022-12-05T07:17:08.451Z,18216.72
2022-12-05T07:19:37.034Z,18184.22
2022-12-05T07:22:07.399Z,18161.88
2022-12-05T07:24:37.629Z,18210.63
2022-12-05T07:27:06.246Z,18163.91
2022-12-05T07:29:34.460Z,18196.41
2022-12-05T07:32:02.887Z,18180.16
2022-12-05T07:34:32.588Z,18198.44
2022-12-05T07:37:01.689Z,18200.47
2022-12-05T07:39:29.995Z,18190.31
2022-12-05T07:41:58.145Z,18206.56
2022-12-05T07:44:26.508Z,18192.34
2022-12-05T07:46:54.634Z,18216.72
2022-12-05T07:49:22.795Z,18216.72
2022-12-05T07:51:52.820Z,18222.81
2022-12-05T07:54:21.020Z,18186.25
2022-12-05T07:56:49.148Z,18208.59
2022-12-05T07:59:17.413Z,18198.44
2022-12-05T08:01:45.637Z,18194.38
2022-12-05T08:04:15.761Z,18180.16
2022-12-05T08:06:44.379Z,18210.63
2022-12-05T08:09:14.087Z,18182.19
2022-12-05T08:11:42.250Z,18161.88
2022-12-05T08:14:11.305Z,18206.56
2022-12-05T08:16:39.475Z,18232.97
2022-12-05T08:19:12.822Z,18220.78
2022-12-05T08:21:41.372Z,18216.72
2022-12-05T08:24:10.320Z,18228.91
2022-12-05T08:26:40.853Z,18239.09
2022-12-05T08:29:12.107Z,18232.97
2022-12-05T08:31:43.912Z,18218.75
2022-12-05T08:34:14.520Z,18226.88
2022-12-05T08:36:43.017Z,18285.81
2022-12-05T08:39:15.989Z,18249.25
2022-12-05T08:41:46.877Z,18275.66
2022-12-05T08:44:17.084Z,18277.69
2022-12-05T08:46:47.729Z,18310.19
2022-12-05T08:49:16.977Z,18314.25
2022-12-05T08:51:45.546Z,18306.13
2022-12-05T08:54:14.169Z,18328.47
2022-12-05T08:56:42.273Z,18320.34
2022-12-05T08:59:11.863Z,18308.16
2022-12-05T09:01:40.458Z,18340.66
2022-12-05T09:04:09.299Z,18334.56
2022-12-05T09:06:39.167Z,18334.56
2022-12-05T09:09:11.513Z,18310.19
2022-12-05T09:11:46.154Z,18324.41
2022-12-05T09:14:16.588Z,18363.00
2022-12-05T09:16:46.784Z,18336.59
2022-12-05T09:19:17.980Z,18350.81
2022-12-05T09:21:46.311Z,18320.34
2022-12-05T09:24:15.479Z,18346.75
2022-12-05T09:26:44.645Z,18360.97
2022-12-05T09:29:18.036Z,18342.69
2022-12-05T09:31:48.609Z,18377.22
2022-12-05T09:34:18.201Z,18373.16
2022-12-05T09:36:51.187Z,18381.28
2022-12-05T09:39:20.249Z,18393.47
2022-12-05T09:42:30.965Z,18407.69
2022-12-05T09:45:14.426Z,18387.38
2022-12-05T09:47:56.216Z,18369.09
2022-12-05T09:50:28.321Z,18369.09
2022-12-05T09:53:28.377Z,18367.06
2022-12-05T09:56:04.687Z,18358.94
2022-12-05T09:58:43.796Z,18399.56
2022-12-05T10:01:32.929Z,18389.41
2022-12-05T10:04:23.823Z,18407.69
2022-12-05T10:07:07.112Z,18393.47
2022-12-05T10:09:58.179Z,18381.28
2022-12-05T10:12:52.902Z,18425.97
2022-12-05T10:15:32.720Z,18411.75
2022-12-05T10:18:11.915Z,18383.31
2022-12-05T10:20:52.599Z,18393.47
2022-12-05T10:23:56.166Z,18399.56
2022-12-05T10:26:18.217Z,18444.28
2022-12-05T10:28:57.204Z,18417.84
2022-12-05T10:31:31.932Z,18395.50
2022-12-05T10:34:12.256Z,18428.03
2022-12-05T10:36:40.497Z,18405.66
2022-12-05T10:39:11.657Z,18399.56
2022-12-05T10:41:41.594Z,18432.09
2022-12-05T10:44:11.687Z,18395.50
2022-12-05T10:46:39.902Z,18391.44
2022-12-05T10:49:13.484Z,18401.59
2022-12-05T10:51:42.416Z,18421.91
2022-12-05T10:54:21.241Z,18407.69
2022-12-05T10:56:51.613Z,18456.47
2022-12-05T10:59:23.005Z,18454.44
2022-12-05T11:01:56.820Z,18415.81
2022-12-05T11:04:30.672Z,18419.88
2022-12-05T11:07:02.239Z,18423.94
2022-12-05T11:09:33.416Z,18407.69
2022-12-05T11:12:19.928Z,18454.44
2022-12-05T11:15:06.130Z,18415.81
2022-12-05T11:17:37.377Z,18411.75
2022-12-05T11:20:38.710Z,18440.22
2022-12-05T11:23:27.335Z,18421.91
2022-12-05T11:25:57.245Z,18391.44
2022-12-05T11:28:37.997Z,18444.28
2022-12-05T11:31:23.532Z,18421.91
2022-12-05T11:34:06.815Z,18428.03
2022-12-05T11:36:43.558Z,18438.19
2022-12-05T11:39:14.550Z,18413.78
2022-12-05T11:42:09.107Z,18438.19
2022-12-05T11:45:07.011Z,18419.88
2022-12-05T11:48:10.047Z,18432.09
2022-12-05T11:50:47.918Z,18397.53
2022-12-05T11:53:54.123Z,18403.63
2022-12-05T11:56:38.300Z,18421.91
2022-12-05T11:59:35.511Z,18460.53
2022-12-05T12:02:25.484Z,18401.59
2022-12-05T12:05:04.347Z,18393.47
2022-12-05T12:07:58.498Z,18432.09
2022-12-05T12:10:45.443Z,18450.38
2022-12-05T12:13:33.938Z,18452.41
2022-12-05T12:16:16.630Z,18397.53
2022-12-05T12:19:07.214Z,18428.03
2022-12-05T12:21:54.489Z,18446.31
2022-12-05T12:24:40.227Z,18440.22
2022-12-05T12:27:23.778Z,18458.50
2022-12-05T12:30:07.891Z,18468.66
2022-12-05T12:32:46.966Z,18436.16
2022-12-05T12:35:31.442Z,18464.59
2022-12-05T12:38:43.788Z,18421.91
2022-12-05T12:41:30.513Z,18464.59
2022-12-05T12:44:24.226Z,18444.28
2022-12-05T12:46:58.590Z,18430.06
2022-12-05T12:49:55.101Z,18466.63
2022-12-05T12:52:28.914Z,18448.34
2022-12-05T12:55:19.767Z,18434.13
2022-12-05T12:58:07.249Z,18452.41
2022-12-05T13:00:57.113Z,18430.06
2022-12-05T13:03:36.402Z,18446.31
2022-12-05T13:06:13.058Z,18448.34
2022-12-05T13:08:47.633Z,18409.72
2022-12-05T13:11:19.619Z,18425.97
2022-12-05T13:13:53.979Z,18452.41
2022-12-05T13:16:29.402Z,18444.28
2022-12-05T13:18:58.620Z,18419.88
2022-12-05T13:21:28.456Z,18434.13
2022-12-05T13:24:03.245Z,18454.44
2022-12-05T13:26:34.227Z,18462.56
2022-12-05T13:29:05.710Z,18423.94
2022-12-05T13:31:42.385Z,18432.09
2022-12-05T13:34:46.740Z,18450.38
2022-12-05T13:37:41.592Z,18452.41
2022-12-05T13:40:46.425Z,18448.34
2022-12-05T13:43:19.280Z,18417.84
2022-12-05T13:46:07.217Z,18413.78
2022-12-05T13:48:41.822Z,18448.34
2022-12-05T13:51:21.981Z,18438.19
2022-12-05T13:54:01.523Z,18436.16
2022-12-05T13:56:51.962Z,18419.88
2022-12-05T14:00:01.940Z,18430.06
2022-12-05T14:02:51.236Z,18452.41
2022-12-05T14:05:54.204Z,18419.88
2022-12-05T14:08:58.480Z,18423.94
2022-12-05T14:11:26.703Z,18442.25
2022-12-05T14:14:00.781Z,18403.63
2022-12-05T14:16:46.060Z,18464.59
2022-12-05T14:19:51.674Z,18456.47
2022-12-05T14:22:51.613Z,18444.28
2022-12-05T14:25:51.616Z,18432.09
2022-12-05T14:28:47.680Z,18454.44
2022-12-05T14:31:39.482Z,18397.53
2022-12-05T14:34:22.228Z,18428.03
2022-12-05T14:36:57.557Z,18456.47
2022-12-05T14:39:43.236Z,18432.09
2022-12-05T14:42:28.651Z,18448.34
2022-12-05T14:45:02.828Z,18395.50
2022-12-05T14:47:35.243Z,18421.91
2022-12-05T14:50:38.359Z,18417.84
2022-12-05T14:53:40.197Z,18389.41
2022-12-05T14:56:28.195Z,18446.31
2022-12-05T14:59:05.260Z,18432.09
2022-12-05T15:01:44.791Z,18407.69
2022-12-05T15:04:24.461Z,18395.50
2022-12-05T15:06:58.739Z,18438.19
2022-12-05T15:09:57.159Z,18399.56
2022-12-05T15:12:39.749Z,18411.75
2022-12-05T15:15:17.346Z,18393.47
2022-12-05T15:17:51.530Z,18399.56
2022-12-05T15:20:40.091Z,18397.53
2022-12-05T15:23:40.218Z,18399.56
2022-12-05T15:29:18.352Z,18419.88
2022-12-05T15:31:49.595Z,18407.69
2022-12-05T15:34:24.905Z,18358.94
2022-12-05T15:37:04.745Z,18403.63
2022-12-05T15:39:54.769Z,18393.47
2022-12-05T15:42:29.470Z,18434.13
2022-12-05T15:45:23.390Z,18371.13
2022-12-05T15:47:56.715Z,18367.06
2022-12-05T15:50:34.736Z,18373.16
2022-12-05T15:53:11.280Z,18385.34
2022-12-05T15:55:47.621Z,18306.13
2022-12-05T15:58:26.452Z,18373.16
2022-12-05T16:01:02.580Z,18377.22
2022-12-05T16:03:42.028Z,18340.66
2022-12-05T16:06:20.871Z,18348.78
2022-12-05T16:08:52.004Z,18367.06
2022-12-05T16:11:21.335Z,18354.88
2022-12-05T16:13:55.121Z,18389.41
2022-12-05T16:16:29.112Z,18348.78
2022-12-05T16:19:00.961Z,18328.47
2022-12-05T16:21:37.362Z,18346.75
2022-12-05T16:24:16.414Z,18318.31
2022-12-05T16:26:57.901Z,18298.00
2022-12-05T16:29:28.838Z,18326.44
2022-12-05T16:32:01.296Z,18304.09
2022-12-05T16:34:34.537Z,18314.25
2022-12-05T16:37:02.837Z,18277.69
2022-12-05T16:39:31.102Z,18293.94
2022-12-05T16:41:59.434Z,18267.53
2022-12-05T16:45:03.615Z,18271.59
2022-12-05T16:48:00.050Z,18265.50
2022-12-05T16:50:34.863Z,18249.25
2022-12-05T16:53:22.535Z,18253.31
2022-12-05T16:55:51.173Z,18220.78
2022-12-05T16:58:25.416Z,18232.97
2022-12-05T17:01:01.055Z,18228.91
2022-12-05T17:03:35.683Z,18210.63
2022-12-05T17:06:04.695Z,18176.09
2022-12-05T17:08:32.872Z,18206.56
2022-12-05T17:11:03.626Z,18178.13
2022-12-05T17:13:32.966Z,18151.72
2022-12-05T17:16:01.121Z,18147.66
2022-12-05T17:18:31.974Z,18143.59
2022-12-05T17:21:03.279Z,18172.03
2022-12-05T17:23:31.368Z,18153.75
2022-12-05T17:26:00.699Z,18159.84
2022-12-05T17:28:28.800Z,18143.59
2022-12-05T17:30:57.193Z,18163.91
2022-12-05T17:33:26.474Z,18135.47
2022-12-05T17:35:55.914Z,18135.47
2022-12-05T17:38:24.078Z,18161.88
2022-12-05T17:40:52.159Z,18149.69
2022-12-05T17:43:25.295Z,18117.19
2022-12-05T17:45:54.690Z,18127.34
2022-12-05T17:48:23.185Z,18153.75
2022-12-05T17:50:51.469Z,18159.84
2022-12-05T17:53:22.704Z,18131.41
2022-12-05T17:55:51.394Z,18172.03
2022-12-05T17:58:19.637Z,18131.41
2022-12-05T18:00:49.644Z,18149.69
2022-12-05T18:03:19.026Z,18159.84
2022-12-05T18:05:48.496Z,18172.03
2022-12-05T18:08:17.505Z,18139.53
2022-12-05T18:10:49.052Z,18186.25
2022-12-05T18:13:18.871Z,18188.28
2022-12-05T18:15:49.371Z,18180.16
2022-12-05T18:18:19.142Z,18176.09
2022-12-05T18:20:47.262Z,18200.47
2022-12-05T18:23:17.944Z,18188.28
2022-12-05T18:25:58.373Z,18206.56
2022-12-05T18:28:27.119Z,18198.44
2022-12-05T18:31:06.901Z,18202.50
2022-12-05T18:33:35.178Z,18212.66
2022-12-05T18:36:09.360Z,18218.75
2022-12-05T18:38:38.351Z,18200.47
2022-12-05T18:41:08.377Z,18174.06
2022-12-05T18:43:37.207Z,18208.59
2022-12-05T18:46:06.488Z,18182.19
2022-12-05T18:48:42.558Z,18224.84
2022-12-05T18:51:16.662Z,18200.47
2022-12-05T18:53:51.454Z,18222.81
2022-12-05T18:56:24.981Z,18214.69
2022-12-05T18:58:56.705Z,18212.66
2022-12-05T19:01:25.672Z,18208.59
2022-12-05T19:03:54.232Z,18206.56
2022-12-05T19:06:26.044Z,18222.81
2022-12-05T19:08:56.071Z,18202.50
2022-12-05T19:11:27.556Z,18224.84
2022-12-05T19:13:57.254Z,18202.50
2022-12-05T19:16:26.707Z,18267.53
2022-12-05T19:18:56.566Z,18206.56
2022-12-05T19:21:26.250Z,18271.59
2022-12-05T19:23:55.034Z,18257.38
2022-12-05T19:26:25.476Z,18265.50
2022-12-05T19:28:53.690Z,18253.31
2022-12-05T19:31:24.729Z,18271.59
2022-12-05T19:33:55.885Z,18265.50
2022-12-05T19:36:27.356Z,18271.59
2022-12-05T19:38:57.138Z,18263.47
2022-12-05T19:41:29.373Z,18285.81
2022-12-05T19:44:00.727Z,18285.81
2022-12-05T19:46:31.250Z,18298.00
2022-12-05T19:49:02.187Z,18283.78
2022-12-05T19:51:30.696Z,18302.06
2022-12-05T19:54:00.851Z,18285.81
2022-12-05T19:56:32.975Z,18287.84
2022-12-05T19:59:01.395Z,18291.91
2022-12-05T20:01:31.940Z,18291.91
2022-12-05T20:04:03.005Z,18289.88
2022-12-05T20:06:34.524Z,18287.84
2022-12-05T20:09:03.132Z,18295.97
2022-12-05T20:11:32.650Z,18302.06
2022-12-05T20:14:02.732Z,18310.19
2022-12-05T20:16:31.341Z,18298.00
2022-12-05T20:19:00.919Z,18277.69
2022-12-05T20:21:32.685Z,18302.06
2022-12-05T20:24:02.679Z,18271.59
2022-12-05T20:26:35.971Z,18283.78
2022-12-05T20:29:06.225Z,18281.75
2022-12-05T20:31:36.551Z,18322.38
2022-12-05T20:34:05.973Z,18293.94
2022-12-05T20:36:36.068Z,18271.59
2022-12-05T20:39:07.203Z,18273.63
2022-12-05T20:41:36.711Z,18291.91
2022-12-05T20:44:07.909Z,18302.06
2022-12-05T20:46:36.944Z,18326.44
2022-12-05T20:49:05.244Z,18273.63
2022-12-05T20:51:35.311Z,18310.19
2022-12-05T20:54:07.257Z,18310.19
2022-12-05T20:56:36.938Z,18312.22
2022-12-05T20:59:08.052Z,18308.16
2022-12-05T21:01:38.487Z,18322.38
2022-12-05T21:04:09.345Z,18289.88
2022-12-05T21:06:40.308Z,18350.81
2022-12-05T21:09:15.841Z,18330.50
2022-12-05T21:11:46.260Z,18328.47
2022-12-05T21:14:14.801Z,18298.00
2022-12-05T21:16:42.883Z,18298.00
2022-12-05T21:19:11.040Z,18338.63
2022-12-05T21:21:39.398Z,18314.25
2022-12-05T21:24:08.988Z,18302.06
2022-12-05T21:26:37.476Z,18267.53
2022-12-05T21:29:10.509Z,18326.44
2022-12-05T21:31:41.390Z,18318.31
2022-12-05T21:34:15.947Z,18291.91
2022-12-05T21:36:45.284Z,18318.31
2022-12-05T21:39:13.873Z,18302.06
2022-12-05T21:41:42.203Z,18352.84
2022-12-05T21:44:11.644Z,18293.94
2022-12-05T21:46:39.767Z,18295.97
2022-12-05T21:49:08.113Z,18316.28
2022-12-05T21:51:36.239Z,18336.59
2022-12-05T21:54:04.944Z,18346.75
2022-12-05T21:56:33.647Z,18314.25
2022-12-05T21:59:01.776Z,18326.44
2022-12-05T22:01:31.286Z,18320.34
2022-12-05T22:04:00.759Z,18316.28
2022-12-05T22:06:29.990Z,18373.16
2022-12-05T22:08:58.325Z,18360.97
2022-12-05T22:11:26.895Z,18363.00
2022-12-05T22:13:55.179Z,18324.41
2022-12-05T22:16:29.036Z,18332.53
2022-12-05T22:19:02.300Z,18342.69
2022-12-05T22:21:31.001Z,18348.78
2022-12-05T22:23:59.139Z,18316.28
2022-12-05T22:26:28.060Z,18338.63
2022-12-05T22:28:57.738Z,18330.50
2022-12-05T22:31:26.529Z,18332.53
2022-12-05T22:33:54.740Z,18318.31
2022-12-05T22:36:24.471Z,18342.69
2022-12-05T22:38:54.615Z,18356.91
2022-12-05T22:41:25.413Z,18320.34
2022-12-05T22:43:57.563Z,18330.50
2022-12-05T22:46:27.795Z,18326.44
2022-12-05T22:48:56.927Z,18306.13
2022-12-05T22:51:27.369Z,18310.19
2022-12-05T22:53:55.535Z,18314.25
2022-12-05T22:56:25.931Z,18338.63
2022-12-05T22:58:56.199Z,18312.22
2022-12-05T23:01:27.439Z,18330.50
2022-12-05T23:03:58.727Z,18324.41
2022-12-05T23:06:30.014Z,18308.16
2022-12-05T23:08:59.124Z,18322.38
2022-12-05T23:11:29.693Z,18310.19
2022-12-05T23:14:02.342Z,18326.44
2022-12-05T23:16:33.496Z,18302.06
2022-12-05T23:19:05.372Z,18283.78
2022-12-05T23:21:37.258Z,18302.06
2022-12-05T23:24:09.647Z,18314.25
2022-12-05T23:26:40.716Z,18318.31
2022-12-05T23:29:09.748Z,18316.28
2022-12-05T23:31:37.916Z,18338.63
2022-12-05T23:34:06.334Z,18318.31
2022-12-05T23:36:36.719Z,18310.19
2022-12-05T23:39:05.373Z,18298.00
2022-12-05T23:41:33.848Z,18326.44
2022-12-05T23:44:02.279Z,18322.38
2022-12-05T23:46:30.650Z,18318.31
2022-12-05T23:48:58.882Z,18308.16
2022-12-05T23:51:29.841Z,18314.25
2022-12-05T23:54:02.458Z,18336.59
2022-12-05T23:56:33.977Z,18334.56
2022-12-05T23:59:03.462Z,18293.94
